createdAt,value
2022-08-01T00:01:46.105Z,55.43
2022-08-01T00:04:13.382Z,55.64
2022-08-01T00:06:39.841Z,55.46
2022-08-01T00:09:07.445Z,55.68
2022-08-01T00:11:33.842Z,55.65
2022-08-01T00:14:00.210Z,55.55
2022-08-01T00:16:26.628Z,55.63
2022-08-01T00:18:52.931Z,55.71
2022-08-01T00:21:19.457Z,55.54
2022-08-01T00:23:45.892Z,55.39
2022-08-01T00:26:12.193Z,55.64
2022-08-01T00:28:38.483Z,55.62
2022-08-01T00:31:05.209Z,55.65
2022-08-01T00:33:31.478Z,55.56
2022-08-01T00:35:57.868Z,55.68
2022-08-01T00:38:24.206Z,55.39
2022-08-01T00:40:50.572Z,55.62
2022-08-01T00:43:17.086Z,55.30
2022-08-01T00:45:43.505Z,55.63
2022-08-01T00:48:09.873Z,55.44
2022-08-01T00:50:36.264Z,55.68
2022-08-01T00:53:02.814Z,55.24
2022-08-01T00:55:29.274Z,55.38
2022-08-01T00:58:03.854Z,55.59
2022-08-01T01:00:32.874Z,55.36
2022-08-01T01:03:01.571Z,55.54
2022-08-01T01:05:27.957Z,55.63
2022-08-01T01:07:54.845Z,55.54
2022-08-01T01:10:21.235Z,55.18
2022-08-01T01:12:50.170Z,55.60
2022-08-01T01:15:16.795Z,55.39
2022-08-01T01:17:50.080Z,55.61
2022-08-01T01:20:17.969Z,55.67
2022-08-01T01:22:44.483Z,55.14
2022-08-01T01:25:11.022Z,55.62
2022-08-01T01:27:37.459Z,55.32
2022-08-01T01:30:04.091Z,55.41
2022-08-01T01:32:31.079Z,55.53
2022-08-01T01:34:57.630Z,55.73
2022-08-01T01:37:23.942Z,55.77
2022-08-01T01:39:54.334Z,55.35
2022-08-01T01:42:20.826Z,55.51
2022-08-01T01:44:47.277Z,55.76
2022-08-01T01:47:13.596Z,55.34
2022-08-01T01:49:40.031Z,55.67
2022-08-01T01:52:06.606Z,55.69
2022-08-01T01:54:33.058Z,55.30
2022-08-01T01:56:59.517Z,55.48
2022-08-01T01:59:26.167Z,55.77
2022-08-01T02:02:05.074Z,55.73
2022-08-01T02:04:32.553Z,55.89
2022-08-01T02:06:58.983Z,55.79
2022-08-01T02:09:25.306Z,55.37
2022-08-01T02:12:07.544Z,55.75
2022-08-01T02:14:35.084Z,55.96
2022-08-01T02:17:02.847Z,55.52
2022-08-01T02:19:29.263Z,55.74
2022-08-01T02:21:55.801Z,55.85
2022-08-01T02:24:22.163Z,55.48
2022-08-01T02:26:56.927Z,55.56
2022-08-01T02:29:23.278Z,55.94
2022-08-01T02:31:50.851Z,55.75
2022-08-01T02:34:17.330Z,55.81
2022-08-01T02:36:43.840Z,55.55
2022-08-01T02:39:10.242Z,55.82
2022-08-01T02:41:36.730Z,55.82
2022-08-01T02:44:03.056Z,55.56
2022-08-01T02:46:29.446Z,56.05
2022-08-01T02:48:55.829Z,55.97
2022-08-01T02:51:22.272Z,55.65
2022-08-01T02:53:48.642Z,55.96
2022-08-01T02:56:14.983Z,55.73
2022-08-01T02:58:41.318Z,55.80
2022-08-01T03:01:08.232Z,56.07
2022-08-01T03:03:34.602Z,55.78
2022-08-01T03:06:01.003Z,55.88
2022-08-01T03:08:27.322Z,55.56
2022-08-01T03:10:53.691Z,56.08
2022-08-01T03:13:20.099Z,56.06
2022-08-01T03:15:46.522Z,55.79
2022-08-01T03:18:12.854Z,55.70
2022-08-01T03:20:39.159Z,55.83
2022-08-01T03:23:05.573Z,56.12
2022-08-01T03:25:31.883Z,55.94
2022-08-01T03:27:58.250Z,56.35
2022-08-01T03:30:24.604Z,56.02
2022-08-01T03:32:51.034Z,55.96
2022-08-01T03:35:17.358Z,56.04
2022-08-01T03:38:06.302Z,56.45
2022-08-01T03:40:30.078Z,56.33
2022-08-01T03:42:56.619Z,56.30
2022-08-01T03:45:22.971Z,56.04
2022-08-01T03:47:49.303Z,56.29
2022-08-01T03:50:18.519Z,56.14
2022-08-01T03:52:44.986Z,56.10
2022-08-01T03:55:11.415Z,56.26
2022-08-01T03:57:37.968Z,56.49
2022-08-01T04:00:04.337Z,56.25
2022-08-01T04:02:30.687Z,56.18
2022-08-01T04:04:56.986Z,56.36
2022-08-01T04:07:23.388Z,56.45
2022-08-01T04:09:49.677Z,56.07
2022-08-01T04:12:16.139Z,56.15
2022-08-01T04:14:42.727Z,56.47
2022-08-01T04:17:09.191Z,56.12
2022-08-01T04:19:35.739Z,56.49
2022-08-01T04:22:02.158Z,56.61
2022-08-01T04:24:28.965Z,56.55
2022-08-01T04:26:55.342Z,56.45
2022-08-01T04:29:21.641Z,56.43
2022-08-01T04:31:48.029Z,56.54
2022-08-01T04:34:14.460Z,56.25
2022-08-01T04:36:40.781Z,56.60
2022-08-01T04:39:07.347Z,56.20
2022-08-01T04:41:33.710Z,56.40
2022-08-01T04:44:00.071Z,56.59
2022-08-01T04:46:26.497Z,56.75
2022-08-01T04:48:52.893Z,56.39
2022-08-01T04:51:19.289Z,56.45
2022-08-01T04:53:45.823Z,56.72
2022-08-01T04:56:12.190Z,56.75
2022-08-01T04:58:38.533Z,56.65
2022-08-01T05:01:05.170Z,56.29
2022-08-01T05:03:33.149Z,56.36
2022-08-01T05:06:02.229Z,56.47
2022-08-01T05:08:28.702Z,56.39
2022-08-01T05:10:55.061Z,56.68
2022-08-01T05:13:21.539Z,56.48
2022-08-01T05:15:47.862Z,56.39
2022-08-01T05:18:14.235Z,56.45
2022-08-01T05:20:40.861Z,56.31
2022-08-01T05:23:10.229Z,56.43
2022-08-01T05:25:55.931Z,56.69
2022-08-01T05:28:24.490Z,56.75
2022-08-01T05:30:50.802Z,56.85
2022-08-01T05:33:17.182Z,56.42
2022-08-01T05:35:48.199Z,56.55
2022-08-01T05:38:15.715Z,56.57
2022-08-01T05:40:42.639Z,56.67
2022-08-01T05:43:09.090Z,56.50
2022-08-01T05:45:35.459Z,56.61
2022-08-01T05:48:01.784Z,56.39
2022-08-01T05:50:28.119Z,56.53
2022-08-01T05:52:54.454Z,56.75
2022-08-01T05:55:20.779Z,56.57
2022-08-01T05:57:47.479Z,56.42
2022-08-01T06:00:14.119Z,56.45
2022-08-01T06:02:40.684Z,56.58
2022-08-01T06:05:11.371Z,56.35
2022-08-01T06:07:39.844Z,56.56
2022-08-01T06:10:06.626Z,56.64
2022-08-01T06:12:35.605Z,56.72
2022-08-01T06:15:02.294Z,56.48
2022-08-01T06:17:28.780Z,56.85
2022-08-01T06:19:55.109Z,56.71
2022-08-01T06:22:21.545Z,56.92
2022-08-01T06:24:48.381Z,56.73
2022-08-01T06:27:22.155Z,57.08
2022-08-01T06:29:51.401Z,57.13
2022-08-01T06:32:27.341Z,56.83
2022-08-01T06:34:54.241Z,57.12
2022-08-01T06:37:20.670Z,56.82
2022-08-01T06:39:47.110Z,56.79
2022-08-01T06:42:13.854Z,56.99
2022-08-01T06:44:40.218Z,56.77
2022-08-01T06:47:06.608Z,57.13
2022-08-01T06:49:33.112Z,56.85
2022-08-01T06:51:59.656Z,56.82
2022-08-01T06:54:26.019Z,57.01
2022-08-01T06:56:52.402Z,57.08
2022-08-01T06:59:18.739Z,57.57
2022-08-01T07:01:45.075Z,57.27
2022-08-01T07:04:11.553Z,57.26
2022-08-01T07:06:38.002Z,57.28
2022-08-01T07:09:09.474Z,57.32
2022-08-01T07:11:39.524Z,57.06
2022-08-01T07:14:06.078Z,57.05
2022-08-01T07:16:32.391Z,57.44
2022-08-01T07:18:58.727Z,57.41
2022-08-01T07:21:40.008Z,57.38
2022-08-01T07:24:12.596Z,57.40
2022-08-01T07:26:40.481Z,57.86
2022-08-01T07:29:19.255Z,57.79
2022-08-01T07:31:45.574Z,57.80
2022-08-01T07:34:11.973Z,57.96
2022-08-01T07:36:38.272Z,57.74
2022-08-01T07:39:04.707Z,57.83
2022-08-01T07:41:52.872Z,57.55
2022-08-01T07:44:17.522Z,57.92
2022-08-01T07:46:43.845Z,57.54
2022-08-01T07:49:10.195Z,57.97
2022-08-01T07:51:36.634Z,57.69
2022-08-01T07:54:02.956Z,57.94
2022-08-01T07:56:29.481Z,57.71
2022-08-01T07:58:55.842Z,57.87
2022-08-01T08:01:22.275Z,58.00
2022-08-01T08:03:48.596Z,57.97
2022-08-01T08:06:15.005Z,57.93
2022-08-01T08:08:41.338Z,57.57
2022-08-01T08:11:07.768Z,57.95
2022-08-01T08:13:34.075Z,57.68
2022-08-01T08:16:00.795Z,57.83
2022-08-01T08:18:27.193Z,58.01
2022-08-01T08:20:53.644Z,58.11
2022-08-01T08:23:41.625Z,58.11
2022-08-01T08:26:06.377Z,58.13
2022-08-01T08:28:32.704Z,57.98
2022-08-01T08:30:59.262Z,58.01
2022-08-01T08:33:25.586Z,58.18
2022-08-01T08:35:53.801Z,57.69
2022-08-01T08:38:20.813Z,57.87
2022-08-01T08:40:55.687Z,58.04
2022-08-01T08:43:22.042Z,57.69
2022-08-01T08:45:58.755Z,58.09
2022-08-01T08:48:27.948Z,58.25
2022-08-01T08:50:54.479Z,58.04
2022-08-01T08:53:20.806Z,57.93
2022-08-01T08:55:55.573Z,58.49
2022-08-01T08:58:26.386Z,58.05
2022-08-01T09:00:57.970Z,58.04
2022-08-01T09:03:24.457Z,58.12
2022-08-01T09:05:50.813Z,58.28
2022-08-01T09:08:17.169Z,58.00
2022-08-01T09:10:43.554Z,58.31
2022-08-01T09:13:09.906Z,58.17
2022-08-01T09:15:36.365Z,59.15
2022-08-01T09:18:02.806Z,58.94
2022-08-01T09:20:29.124Z,59.92
2022-08-01T09:22:56.000Z,59.46
2022-08-01T09:25:22.440Z,59.41
2022-08-01T09:27:56.381Z,59.56
2022-08-01T09:30:23.349Z,60.03
2022-08-01T09:32:50.415Z,59.85
2022-08-01T09:35:16.798Z,59.50
2022-08-01T09:37:45.188Z,59.61
2022-08-01T09:40:13.792Z,59.76
2022-08-01T09:42:40.176Z,59.50
2022-08-01T09:45:07.355Z,59.46
2022-08-01T09:47:33.914Z,59.58
2022-08-01T09:50:00.521Z,59.73
2022-08-01T09:52:29.261Z,59.83
2022-08-01T09:54:55.898Z,59.47
2022-08-01T09:57:22.401Z,59.60
2022-08-01T09:59:58.358Z,59.87
2022-08-01T10:02:25.267Z,59.88
2022-08-01T10:04:58.153Z,59.62
2022-08-01T10:07:27.634Z,59.65
2022-08-01T10:10:08.992Z,59.60
2022-08-01T10:12:37.943Z,59.79
2022-08-01T10:15:10.903Z,59.70
2022-08-01T10:17:51.235Z,59.63
2022-08-01T10:20:29.015Z,59.51
2022-08-01T10:22:57.065Z,60.11
2022-08-01T10:25:41.995Z,60.30
2022-08-01T10:28:10.157Z,59.85
2022-08-01T10:30:38.223Z,60.49
2022-08-01T10:33:04.746Z,60.36
2022-08-01T10:35:47.610Z,60.14
2022-08-01T10:38:14.390Z,60.38
2022-08-01T10:40:41.050Z,60.61
2022-08-01T10:43:07.776Z,60.57
2022-08-01T10:45:34.351Z,60.54
2022-08-01T10:48:00.763Z,60.50
2022-08-01T10:50:28.457Z,60.57
2022-08-01T10:52:54.982Z,60.82
2022-08-01T10:55:22.495Z,60.54
2022-08-01T10:57:52.884Z,60.64
2022-08-01T11:00:19.477Z,60.39
2022-08-01T11:02:45.837Z,60.44
2022-08-01T11:05:14.232Z,60.35
2022-08-01T11:07:42.729Z,60.39
2022-08-01T11:10:14.543Z,60.24
2022-08-01T11:12:41.422Z,60.56
2022-08-01T11:15:10.531Z,60.33
2022-08-01T11:17:38.020Z,60.90
2022-08-01T11:20:08.961Z,60.53
2022-08-01T11:22:35.326Z,60.73
2022-08-01T11:25:01.754Z,60.77
2022-08-01T11:27:31.457Z,60.46
2022-08-01T11:30:00.464Z,60.42
2022-08-01T11:32:26.937Z,60.25
2022-08-01T11:34:53.265Z,60.55
2022-08-01T11:37:19.677Z,60.86
2022-08-01T11:39:46.105Z,60.68
2022-08-01T11:42:15.446Z,60.46
2022-08-01T11:44:41.855Z,60.46
2022-08-01T11:47:09.631Z,60.67
2022-08-01T11:49:36.769Z,60.38
2022-08-01T11:52:05.511Z,60.44
2022-08-01T11:54:35.330Z,60.36
2022-08-01T11:57:02.344Z,60.65
2022-08-01T11:59:34.064Z,60.60
2022-08-01T12:02:04.837Z,60.70
2022-08-01T12:04:31.274Z,60.61
2022-08-01T12:06:57.741Z,60.32
2022-08-01T12:09:24.075Z,60.54
2022-08-01T12:11:50.682Z,60.63
2022-08-01T12:14:17.079Z,60.90
2022-08-01T12:16:43.505Z,60.78
2022-08-01T12:19:11.754Z,60.45
2022-08-01T12:21:38.193Z,60.55
2022-08-01T12:24:04.794Z,60.39
2022-08-01T12:26:32.301Z,60.76
2022-08-01T12:28:58.948Z,60.34
2022-08-01T12:31:25.228Z,60.83
2022-08-01T12:33:51.607Z,60.68
2022-08-01T12:36:18.046Z,60.81
2022-08-01T12:38:44.680Z,60.96
2022-08-01T12:41:11.145Z,61.11
2022-08-01T12:43:37.673Z,60.69
2022-08-01T12:46:04.090Z,61.00
2022-08-01T12:48:30.467Z,60.58
2022-08-01T12:50:56.814Z,60.86
2022-08-01T12:53:23.269Z,61.06
2022-08-01T12:55:58.621Z,60.92
2022-08-01T12:58:26.318Z,60.66
2022-08-01T13:00:52.726Z,60.65
2022-08-01T13:03:19.232Z,60.53
2022-08-01T13:05:45.595Z,61.02
2022-08-01T13:08:11.974Z,60.90
2022-08-01T13:10:38.346Z,60.38
2022-08-01T13:13:04.661Z,60.53
2022-08-01T13:15:31.002Z,61.00
2022-08-01T13:17:57.317Z,60.64
2022-08-01T13:20:23.829Z,60.72
2022-08-01T13:22:50.301Z,60.61
2022-08-01T13:25:20.821Z,60.65
2022-08-01T13:27:53.735Z,60.54
2022-08-01T13:30:22.273Z,60.83
2022-08-01T13:32:48.598Z,60.86
2022-08-01T13:35:14.945Z,60.41
2022-08-01T13:37:41.537Z,60.78
2022-08-01T13:40:07.902Z,60.89
2022-08-01T13:42:34.400Z,60.67
2022-08-01T13:45:00.716Z,60.91
2022-08-01T13:47:32.025Z,60.59
2022-08-01T13:49:59.873Z,60.63
2022-08-01T13:52:26.280Z,61.13
2022-08-01T13:54:53.217Z,61.12
2022-08-01T13:57:19.611Z,60.53
2022-08-01T13:59:45.897Z,60.86
2022-08-01T14:02:12.202Z,61.22
2022-08-01T14:04:38.498Z,60.89
2022-08-01T14:07:10.779Z,61.00
2022-08-01T14:09:45.021Z,61.14
2022-08-01T14:12:26.978Z,61.26
2022-08-01T14:14:53.536Z,61.14
2022-08-01T14:17:19.938Z,61.23
2022-08-01T14:19:46.560Z,60.69
2022-08-01T14:22:13.563Z,60.96
2022-08-01T14:24:39.901Z,61.29
2022-08-01T14:27:08.046Z,61.25
2022-08-01T14:30:01.129Z,61.42
2022-08-01T14:32:22.310Z,60.97
2022-08-01T14:34:52.308Z,60.75
2022-08-01T14:37:18.663Z,61.13
2022-08-01T14:39:53.408Z,60.90
2022-08-01T14:42:20.801Z,61.06
2022-08-01T14:44:50.001Z,61.28
2022-08-01T14:47:21.920Z,60.99
2022-08-01T14:49:48.810Z,60.85
2022-08-01T14:52:15.395Z,60.67
2022-08-01T14:54:41.774Z,61.08
2022-08-01T14:57:08.097Z,60.97
2022-08-01T14:59:34.829Z,60.66
2022-08-01T15:02:01.271Z,60.92
2022-08-01T15:04:27.645Z,60.81
2022-08-01T15:06:54.003Z,60.63
2022-08-01T15:09:20.504Z,60.47
2022-08-01T15:11:47.145Z,60.99
2022-08-01T15:14:13.488Z,60.83
2022-08-01T15:16:46.565Z,60.77
2022-08-01T15:19:17.437Z,60.79
2022-08-01T15:21:44.013Z,60.74
2022-08-01T15:24:10.415Z,60.56
2022-08-01T15:26:36.826Z,60.45
2022-08-01T15:29:03.265Z,60.21
2022-08-01T15:31:29.721Z,60.58
2022-08-01T15:33:56.035Z,60.26
2022-08-01T15:36:25.710Z,60.65
2022-08-01T15:38:52.895Z,60.88
2022-08-01T15:41:19.262Z,60.25
2022-08-01T15:43:46.747Z,60.65
2022-08-01T15:46:22.043Z,60.70
2022-08-01T15:48:48.451Z,60.55
2022-08-01T15:51:15.118Z,60.62
2022-08-01T15:53:41.658Z,60.78
2022-08-01T15:56:08.051Z,60.63
2022-08-01T15:58:34.542Z,60.29
2022-08-01T16:01:01.244Z,60.89
2022-08-01T16:03:27.618Z,60.75
2022-08-01T16:05:53.941Z,60.73
2022-08-01T16:08:20.230Z,60.41
2022-08-01T16:10:46.606Z,60.71
2022-08-01T16:13:13.305Z,60.52
2022-08-01T16:15:39.662Z,60.58
2022-08-01T16:18:06.008Z,60.88
2022-08-01T16:20:32.377Z,60.62
2022-08-01T16:22:58.710Z,60.72
2022-08-01T16:25:25.043Z,60.25
2022-08-01T16:27:51.698Z,60.85
2022-08-01T16:30:18.219Z,60.47
2022-08-01T16:32:47.625Z,60.88
2022-08-01T16:35:29.434Z,60.71
2022-08-01T16:38:02.829Z,60.69
2022-08-01T16:40:29.181Z,60.52
2022-08-01T16:42:56.103Z,60.35
2022-08-01T16:45:25.011Z,60.49
2022-08-01T16:47:51.332Z,60.26
2022-08-01T16:50:17.717Z,60.51
2022-08-01T16:52:54.238Z,60.24
2022-08-01T16:55:20.702Z,60.39
2022-08-01T16:57:47.238Z,60.25
2022-08-01T17:00:21.004Z,60.24
2022-08-01T17:02:47.992Z,60.33
2022-08-01T17:05:14.598Z,60.59
2022-08-01T17:07:40.997Z,60.60
2022-08-01T17:10:09.881Z,60.63
2022-08-01T17:12:36.410Z,60.63
2022-08-01T17:15:02.907Z,60.49
2022-08-01T17:17:29.900Z,60.71
2022-08-01T17:19:56.535Z,60.11
2022-08-01T17:22:22.872Z,60.51
2022-08-01T17:24:49.320Z,60.57
2022-08-01T17:27:16.150Z,60.23
2022-08-01T17:29:44.095Z,60.39
2022-08-01T17:32:10.858Z,60.65
2022-08-01T17:34:37.177Z,60.34
2022-08-01T17:37:03.746Z,60.33
2022-08-01T17:39:38.498Z,60.34
2022-08-01T17:42:06.159Z,60.23
2022-08-01T17:44:32.512Z,60.25
2022-08-01T17:46:58.911Z,60.51
2022-08-01T17:49:52.388Z,60.32
2022-08-01T17:52:11.698Z,60.49
2022-08-01T17:54:38.141Z,60.53
2022-08-01T17:57:04.859Z,60.13
2022-08-01T17:59:34.807Z,60.44
2022-08-01T18:02:01.201Z,60.12
2022-08-01T18:04:27.687Z,60.46
2022-08-01T18:06:58.101Z,60.52
2022-08-01T18:09:25.576Z,60.06
2022-08-01T18:11:52.335Z,60.21
2022-08-01T18:14:19.267Z,60.13
2022-08-01T18:16:45.573Z,60.39
2022-08-01T18:19:11.863Z,60.60
2022-08-01T18:21:42.689Z,60.49
2022-08-01T18:24:09.345Z,60.20
2022-08-01T18:26:35.798Z,60.40
2022-08-01T18:29:02.181Z,60.32
2022-08-01T18:31:28.537Z,60.23
2022-08-01T18:33:54.846Z,59.99
2022-08-01T18:36:31.998Z,60.23
2022-08-01T18:39:00.114Z,60.24
2022-08-01T18:41:26.632Z,60.30
2022-08-01T18:43:52.980Z,60.15
2022-08-01T18:46:30.447Z,60.00
2022-08-01T18:48:57.088Z,60.29
2022-08-01T18:51:23.552Z,60.14
2022-08-01T18:53:50.055Z,60.28
2022-08-01T18:56:16.474Z,60.04
2022-08-01T18:58:43.027Z,60.30
2022-08-01T19:01:09.485Z,60.20
2022-08-01T19:03:38.583Z,60.03
2022-08-01T19:06:08.890Z,60.17
2022-08-01T19:08:35.217Z,60.23
2022-08-01T19:11:01.634Z,59.98
2022-08-01T19:13:28.002Z,60.19
2022-08-01T19:15:54.349Z,59.95
2022-08-01T19:18:20.691Z,60.24
2022-08-01T19:20:47.121Z,59.96
2022-08-01T19:23:13.545Z,60.10
2022-08-01T19:25:55.581Z,60.03
2022-08-01T19:28:22.561Z,60.12
2022-08-01T19:30:53.609Z,60.00
2022-08-01T19:33:20.127Z,60.13
2022-08-01T19:35:46.496Z,60.12
2022-08-01T19:38:12.838Z,60.27
2022-08-01T19:40:39.315Z,59.90
2022-08-01T19:43:05.735Z,59.96
2022-08-01T19:45:32.195Z,60.00
2022-08-01T19:47:58.534Z,59.96
2022-08-01T19:50:25.043Z,60.21
2022-08-01T19:52:51.538Z,60.00
2022-08-01T19:55:18.021Z,59.83
2022-08-01T19:57:45.651Z,60.15
2022-08-01T20:00:23.899Z,60.33
2022-08-01T20:02:54.847Z,59.90
2022-08-01T20:05:22.040Z,60.21
2022-08-01T20:07:48.339Z,60.26
2022-08-01T20:10:14.711Z,60.19
2022-08-01T20:12:40.993Z,60.21
2022-08-01T20:15:07.533Z,60.37
2022-08-01T20:17:33.887Z,60.27
2022-08-01T20:20:00.270Z,60.42
2022-08-01T20:22:26.636Z,59.85
2022-08-01T20:24:52.993Z,59.92
2022-08-01T20:27:19.404Z,59.97
2022-08-01T20:29:45.753Z,59.79
2022-08-01T20:32:12.099Z,59.93
2022-08-01T20:34:38.412Z,60.34
2022-08-01T20:37:06.738Z,59.97
2022-08-01T20:39:33.334Z,60.00
2022-08-01T20:42:00.592Z,60.13
2022-08-01T20:44:26.983Z,60.05
2022-08-01T20:46:53.323Z,59.76
2022-08-01T20:49:19.716Z,60.08
2022-08-01T20:51:46.065Z,59.81
2022-08-01T20:54:12.409Z,59.77
2022-08-01T20:56:38.782Z,59.74
2022-08-01T20:59:05.094Z,59.97
2022-08-01T21:01:31.583Z,60.02
2022-08-01T21:03:58.063Z,59.62
2022-08-01T21:06:24.734Z,59.96
2022-08-01T21:08:52.668Z,59.79
2022-08-01T21:11:19.022Z,59.82
2022-08-01T21:13:45.307Z,59.75
2022-08-01T21:16:24.441Z,59.81
2022-08-01T21:19:17.171Z,59.93
2022-08-01T21:21:40.822Z,60.04
2022-08-01T21:24:07.334Z,59.96
2022-08-01T21:26:33.695Z,59.93
2022-08-01T21:29:02.287Z,59.94
2022-08-01T21:31:40.286Z,59.60
2022-08-01T21:34:07.551Z,59.91
2022-08-01T21:36:33.927Z,59.63
2022-08-01T21:39:00.278Z,59.79
2022-08-01T21:42:04.766Z,59.56
2022-08-01T21:44:13.082Z,59.76
2022-08-01T21:46:39.567Z,59.82
2022-08-01T21:49:05.876Z,59.72
2022-08-01T21:51:32.278Z,59.71
2022-08-01T21:53:58.598Z,59.63
2022-08-01T21:56:25.725Z,59.91
2022-08-01T21:58:52.137Z,59.84
2022-08-01T22:01:18.539Z,59.78
2022-08-01T22:03:45.234Z,59.61
2022-08-01T22:06:11.762Z,59.57
2022-08-01T22:08:38.079Z,59.52
2022-08-01T22:11:04.494Z,59.71
2022-08-01T22:13:30.889Z,59.76
2022-08-01T22:15:57.498Z,59.39
2022-08-01T22:18:23.921Z,59.75
2022-08-01T22:20:50.222Z,59.72
2022-08-01T22:23:16.538Z,59.78
2022-08-01T22:25:43.123Z,59.86
2022-08-01T22:28:10.318Z,59.82
2022-08-01T22:30:36.871Z,59.55
2022-08-01T22:33:07.855Z,59.85
2022-08-01T22:35:43.124Z,59.96
2022-08-01T22:38:09.716Z,59.86
2022-08-01T22:40:36.453Z,59.99
2022-08-01T22:43:03.047Z,59.84
2022-08-01T22:45:29.384Z,59.42
2022-08-01T22:47:56.027Z,59.72
2022-08-01T22:50:36.020Z,59.97
2022-08-01T22:53:03.119Z,60.08
2022-08-01T22:55:58.708Z,59.87
2022-08-01T22:58:18.796Z,59.90
2022-08-01T23:00:45.173Z,60.16
2022-08-01T23:03:11.542Z,60.14
2022-08-01T23:05:38.082Z,60.03
2022-08-01T23:08:04.482Z,60.00
2022-08-01T23:10:30.794Z,60.21
2022-08-01T23:12:57.131Z,60.09
2022-08-01T23:15:23.423Z,60.01
2022-08-01T23:17:49.823Z,59.82
2022-08-01T23:20:16.577Z,59.78
2022-08-01T23:22:42.920Z,60.17
2022-08-01T23:25:10.119Z,60.02
2022-08-01T23:27:51.207Z,59.88
2022-08-01T23:30:22.811Z,60.34
2022-08-01T23:32:49.234Z,60.25
2022-08-01T23:35:15.693Z,60.36
2022-08-01T23:37:42.063Z,60.19
2022-08-01T23:40:08.880Z,60.37
2022-08-01T23:42:35.231Z,60.00
2022-08-01T23:45:01.659Z,60.34
2022-08-01T23:47:28.076Z,60.32
2022-08-01T23:49:54.444Z,60.13
2022-08-01T23:52:21.722Z,60.03
2022-08-01T23:54:48.085Z,60.18
2022-08-01T23:57:16.256Z,60.15
2022-08-01T23:59:53.056Z,59.93
